sensor_id;sensor_type;location;lat;lon;timestamp;temperature;humidity
27647;DHT22;42229;51.230;6.240;2023-02-12T00:00:11;9.80;99.90
27647;DHT22;42229;51.230;6.240;2023-02-12T00:02:43;9.90;99.90
27647;DHT22;42229;51.230;6.240;2023-02-12T00:05:09;9.80;99.90
27647;DHT22;42229;51.230;6.240;2023-02-12T00:07:35;9.90;99.90
27647;DHT22;42229;51.230;6.240;2023-02-12T00:10:01;9.80;99.90
27647;DHT22;42229;51.230;6.240;2023-02-12T00:12:28;9.80;99.90
27647;DHT22;42229;51.230;6.240;2023-02-12T00:14:54;9.80;99.90
27647;DHT22;42229;51.230;6.240;2023-02-12T00:17:20;9.90;99.90
27647;DHT22;42229;51.230;6.240;2023-02-12T00:19:46;9.90;99.90
27647;DHT22;42229;51.230;6.240;2023-02-12T00:22:13;9.90;99.90
27647;DHT22;42229;51.230;6.240;2023-02-12T00:24:39;9.90;99.90
27647;DHT22;42229;51.230;6.240;2023-02-12T00:27:06;9.90;99.90
27647;DHT22;42229;51.230;6.240;2023-02-12T00:29:32;9.90;99.90
27647;DHT22;42229;51.230;6.240;2023-02-12T00:31:58;9.90;99.90
27647;DHT22;42229;51.230;6.240;2023-02-12T00:34:26;9.90;99.90
27647;DHT22;42229;51.230;6.240;2023-02-12T00:36:52;9.90;99.90
27647;DHT22;42229;51.230;6.240;2023-02-12T00:39:19;9.90;99.90
27647;DHT22;42229;51.230;6.240;2023-02-12T00:41:45;9.90;99.90
27647;DHT22;42229;51.230;6.240;2023-02-12T00:44:11;9.80;99.90
27647;DHT22;42229;51.230;6.240;2023-02-12T00:46:37;9.80;99.90
27647;DHT22;42229;51.230;6.240;2023-02-12T00:49:04;9.80;99.90
27647;DHT22;42229;51.230;6.240;2023-02-12T00:51:30;9.80;99.90
27647;DHT22;42229;51.230;6.240;2023-02-12T00:53:56;9.80;99.90
27647;DHT22;42229;51.230;6.240;2023-02-12T00:56:22;9.80;99.90
27647;DHT22;42229;51.230;6.240;2023-02-12T00:58:49;9.80;99.90
27647;DHT22;42229;51.230;6.240;2023-02-12T01:01:15;9.80;99.90
27647;DHT22;42229;51.230;6.240;2023-02-12T01:03:42;9.80;99.90
27647;DHT22;42229;51.230;6.240;2023-02-12T01:06:08;9.80;99.90
27647;DHT22;42229;51.230;6.240;2023-02-12T01:08:34;9.80;99.90
27647;DHT22;42229;51.230;6.240;2023-02-12T01:11:01;9.80;99.90
27647;DHT22;42229;51.230;6.240;2023-02-12T01:13:30;9.80;99.90
27647;DHT22;42229;51.230;6.240;2023-02-12T01:16:01;9.80;99.90
27647;DHT22;42229;51.230;6.240;2023-02-12T01:18:34;9.80;99.90
27647;DHT22;42229;51.230;6.240;2023-02-12T01:21:06;9.80;99.90
27647;DHT22;42229;51.230;6.240;2023-02-12T01:23:37;9.80;99.90
27647;DHT22;42229;51.230;6.240;2023-02-12T01:26:04;9.80;99.90
27647;DHT22;42229;51.230;6.240;2023-02-12T01:28:32;9.80;99.90
27647;DHT22;42229;51.230;6.240;2023-02-12T01:30:58;9.80;99.90
27647;DHT22;42229;51.230;6.240;2023-02-12T01:33:26;9.80;99.90
27647;DHT22;42229;51.230;6.240;2023-02-12T01:35:53;9.80;99.90
27647;DHT22;42229;51.230;6.240;2023-02-12T01:38:21;9.80;99.90
27647;DHT22;42229;51.230;6.240;2023-02-12T01:40:47;9.90;99.90
27647;DHT22;42229;51.230;6.240;2023-02-12T01:43:13;9.90;99.90
27647;DHT22;42229;51.230;6.240;2023-02-12T01:48:06;9.80;99.90
27647;DHT22;42229;51.230;6.240;2023-02-12T01:50:32;9.80;99.90
27647;DHT22;42229;51.230;6.240;2023-02-12T01:52:58;9.80;99.90
27647;DHT22;42229;51.230;6.240;2023-02-12T01:55:24;9.90;99.90
27647;DHT22;42229;51.230;6.240;2023-02-12T01:57:51;9.90;99.90
27647;DHT22;42229;51.230;6.240;2023-02-12T02:00:22;9.90;99.90
27647;DHT22;42229;51.230;6.240;2023-02-12T02:02:50;9.90;99.90
27647;DHT22;42229;51.230;6.240;2023-02-12T02:05:30;9.90;99.90
27647;DHT22;42229;51.230;6.240;2023-02-12T02:08:09;9.90;99.90
27647;DHT22;42229;51.230;6.240;2023-02-12T02:10:36;9.80;99.90
27647;DHT22;42229;51.230;6.240;2023-02-12T02:13:02;9.80;99.90
27647;DHT22;42229;51.230;6.240;2023-02-12T02:15:47;9.80;99.90
27647;DHT22;42229;51.230;6.240;2023-02-12T02:32:11;9.70;99.90
27647;DHT22;42229;51.230;6.240;2023-02-12T02:37:39;9.70;99.90
27647;DHT22;42229;51.230;6.240;2023-02-12T02:40:12;9.70;99.90
27647;DHT22;42229;51.230;6.240;2023-02-12T02:42:43;9.60;99.90
27647;DHT22;42229;51.230;6.240;2023-02-12T02:48:03;9.60;99.90
27647;DHT22;42229;51.230;6.240;2023-02-12T02:50:31;9.60;99.90
27647;DHT22;42229;51.230;6.240;2023-02-12T02:53:09;9.60;99.90
27647;DHT22;42229;51.230;6.240;2023-02-12T02:55:39;9.60;99.90
27647;DHT22;42229;51.230;6.240;2023-02-12T02:58:13;9.50;99.90
27647;DHT22;42229;51.230;6.240;2023-02-12T03:00:54;9.50;99.90
27647;DHT22;42229;51.230;6.240;2023-02-12T03:06:00;9.50;99.90
27647;DHT22;42229;51.230;6.240;2023-02-12T03:08:32;9.50;99.90
27647;DHT22;42229;51.230;6.240;2023-02-12T03:11:12;9.50;99.90
27647;DHT22;42229;51.230;6.240;2023-02-12T03:13:45;9.50;99.90
27647;DHT22;42229;51.230;6.240;2023-02-12T03:16:15;9.40;99.90
27647;DHT22;42229;51.230;6.240;2023-02-12T03:18:45;9.40;99.90
27647;DHT22;42229;51.230;6.240;2023-02-12T03:21:17;9.50;99.90
27647;DHT22;42229;51.230;6.240;2023-02-12T03:26:53;9.50;99.90
27647;DHT22;42229;51.230;6.240;2023-02-12T03:29:23;9.40;99.90
27647;DHT22;42229;51.230;6.240;2023-02-12T03:34:29;9.40;99.90
27647;DHT22;42229;51.230;6.240;2023-02-12T03:37:11;9.50;99.90
27647;DHT22;42229;51.230;6.240;2023-02-12T03:42:44;9.40;99.90
27647;DHT22;42229;51.230;6.240;2023-02-12T03:50:43;9.40;99.90
27647;DHT22;42229;51.230;6.240;2023-02-12T03:53:12;9.40;99.90
27647;DHT22;42229;51.230;6.240;2023-02-12T03:55:40;9.40;99.90
27647;DHT22;42229;51.230;6.240;2023-02-12T03:58:08;9.40;99.90
27647;DHT22;42229;51.230;6.240;2023-02-12T04:00:36;9.40;99.90
27647;DHT22;42229;51.230;6.240;2023-02-12T04:03:04;9.40;99.90
27647;DHT22;42229;51.230;6.240;2023-02-12T04:05:30;9.40;99.90
27647;DHT22;42229;51.230;6.240;2023-02-12T04:07:56;9.40;99.90
27647;DHT22;42229;51.230;6.240;2023-02-12T04:10:31;9.40;99.90
27647;DHT22;42229;51.230;6.240;2023-02-12T04:13:07;9.40;99.90
27647;DHT22;42229;51.230;6.240;2023-02-12T04:23:34;9.30;99.90
27647;DHT22;42229;51.230;6.240;2023-02-12T04:26:16;9.30;99.90
27647;DHT22;42229;51.230;6.240;2023-02-12T04:32:20;9.30;99.90
27647;DHT22;42229;51.230;6.240;2023-02-12T04:37:33;9.30;99.90
27647;DHT22;42229;51.230;6.240;2023-02-12T04:40:05;9.30;99.90
27647;DHT22;42229;51.230;6.240;2023-02-12T04:42:40;9.30;99.90
27647;DHT22;42229;51.230;6.240;2023-02-12T04:45:08;9.30;99.90
27647;DHT22;42229;51.230;6.240;2023-02-12T04:47:36;9.30;99.90
27647;DHT22;42229;51.230;6.240;2023-02-12T04:50:03;9.30;99.90
27647;DHT22;42229;51.230;6.240;2023-02-12T04:52:29;9.30;99.90
27647;DHT22;42229;51.230;6.240;2023-02-12T04:54:55;9.30;99.90
27647;DHT22;42229;51.230;6.240;2023-02-12T04:57:21;9.30;99.90
27647;DHT22;42229;51.230;6.240;2023-02-12T04:59:48;9.30;99.90
27647;DHT22;42229;51.230;6.240;2023-02-12T05:02:14;9.30;99.90
27647;DHT22;42229;51.230;6.240;2023-02-12T05:04:40;9.30;99.90
27647;DHT22;42229;51.230;6.240;2023-02-12T05:07:06;9.30;99.90
27647;DHT22;42229;51.230;6.240;2023-02-12T05:09:32;9.30;99.90
27647;DHT22;42229;51.230;6.240;2023-02-12T05:11:59;9.30;99.90
27647;DHT22;42229;51.230;6.240;2023-02-12T05:14:25;9.30;99.90
27647;DHT22;42229;51.230;6.240;2023-02-12T05:16:51;9.30;99.90
27647;DHT22;42229;51.230;6.240;2023-02-12T05:19:17;9.30;99.90
27647;DHT22;42229;51.230;6.240;2023-02-12T05:21:44;9.30;99.90
27647;DHT22;42229;51.230;6.240;2023-02-12T05:24:10;9.30;99.90
27647;DHT22;42229;51.230;6.240;2023-02-12T05:26:36;9.30;99.90
27647;DHT22;42229;51.230;6.240;2023-02-12T05:29:02;9.30;99.90
27647;DHT22;42229;51.230;6.240;2023-02-12T05:31:29;9.30;99.90
27647;DHT22;42229;51.230;6.240;2023-02-12T05:33:55;9.40;99.90
27647;DHT22;42229;51.230;6.240;2023-02-12T05:36:22;9.30;99.90
27647;DHT22;42229;51.230;6.240;2023-02-12T05:38:48;9.30;99.90
27647;DHT22;42229;51.230;6.240;2023-02-12T05:41:20;9.30;99.90
27647;DHT22;42229;51.230;6.240;2023-02-12T05:43:47;9.30;99.90
27647;DHT22;42229;51.230;6.240;2023-02-12T05:46:14;9.30;99.90
27647;DHT22;42229;51.230;6.240;2023-02-12T05:48:41;9.30;99.90
27647;DHT22;42229;51.230;6.240;2023-02-12T05:51:09;9.30;99.90
27647;DHT22;42229;51.230;6.240;2023-02-12T05:53:37;9.40;99.90
27647;DHT22;42229;51.230;6.240;2023-02-12T05:56:21;9.40;99.90
27647;DHT22;42229;51.230;6.240;2023-02-12T05:58:53;9.40;99.90
27647;DHT22;42229;51.230;6.240;2023-02-12T06:01:28;9.40;99.90
27647;DHT22;42229;51.230;6.240;2023-02-12T06:03:57;9.30;99.90
27647;DHT22;42229;51.230;6.240;2023-02-12T06:06:24;9.40;99.90
27647;DHT22;42229;51.230;6.240;2023-02-12T06:08:51;9.40;99.90
27647;DHT22;42229;51.230;6.240;2023-02-12T06:11:17;9.30;99.90
27647;DHT22;42229;51.230;6.240;2023-02-12T06:13:45;9.30;99.90
27647;DHT22;42229;51.230;6.240;2023-02-12T06:16:19;9.30;99.90
27647;DHT22;42229;51.230;6.240;2023-02-12T06:18:47;9.30;99.90
27647;DHT22;42229;51.230;6.240;2023-02-12T06:21:14;9.30;99.90
27647;DHT22;42229;51.230;6.240;2023-02-12T06:23:41;9.30;99.90
27647;DHT22;42229;51.230;6.240;2023-02-12T06:26:07;9.30;99.90
27647;DHT22;42229;51.230;6.240;2023-02-12T06:28:33;9.20;99.90
27647;DHT22;42229;51.230;6.240;2023-02-12T06:31:00;9.20;99.90
27647;DHT22;42229;51.230;6.240;2023-02-12T06:33:26;9.20;99.90
27647;DHT22;42229;51.230;6.240;2023-02-12T06:35:55;9.20;99.90
27647;DHT22;42229;51.230;6.240;2023-02-12T06:38:21;9.20;99.90
27647;DHT22;42229;51.230;6.240;2023-02-12T06:40:48;9.20;99.90
27647;DHT22;42229;51.230;6.240;2023-02-12T06:43:14;9.20;99.90
27647;DHT22;42229;51.230;6.240;2023-02-12T06:45:40;9.20;99.90
27647;DHT22;42229;51.230;6.240;2023-02-12T06:48:06;9.20;99.90
27647;DHT22;42229;51.230;6.240;2023-02-12T06:50:32;9.20;99.90
27647;DHT22;42229;51.230;6.240;2023-02-12T06:52:59;9.20;99.90
27647;DHT22;42229;51.230;6.240;2023-02-12T06:55:25;9.20;99.90
27647;DHT22;42229;51.230;6.240;2023-02-12T06:57:51;9.20;99.90
27647;DHT22;42229;51.230;6.240;2023-02-12T07:00:18;9.20;99.90
27647;DHT22;42229;51.230;6.240;2023-02-12T07:02:44;9.20;99.90
27647;DHT22;42229;51.230;6.240;2023-02-12T07:05:17;9.20;99.90
27647;DHT22;42229;51.230;6.240;2023-02-12T07:07:43;9.20;99.90
27647;DHT22;42229;51.230;6.240;2023-02-12T07:10:09;9.20;99.90
27647;DHT22;42229;51.230;6.240;2023-02-12T07:12:36;9.30;99.90
27647;DHT22;42229;51.230;6.240;2023-02-12T07:15:02;9.30;99.90
27647;DHT22;42229;51.230;6.240;2023-02-12T07:17:29;9.30;99.90
27647;DHT22;42229;51.230;6.240;2023-02-12T07:19:55;9.30;99.90
27647;DHT22;42229;51.230;6.240;2023-02-12T07:22:22;9.30;99.90
27647;DHT22;42229;51.230;6.240;2023-02-12T07:24:48;9.30;99.90
27647;DHT22;42229;51.230;6.240;2023-02-12T07:27:14;9.30;99.90
27647;DHT22;42229;51.230;6.240;2023-02-12T07:29:40;9.30;99.90
27647;DHT22;42229;51.230;6.240;2023-02-12T07:32:07;9.40;99.90
27647;DHT22;42229;51.230;6.240;2023-02-12T07:34:33;9.40;99.90
27647;DHT22;42229;51.230;6.240;2023-02-12T07:36:59;9.40;99.90
27647;DHT22;42229;51.230;6.240;2023-02-12T07:39:25;9.40;99.90
27647;DHT22;42229;51.230;6.240;2023-02-12T07:41:52;9.40;99.90
27647;DHT22;42229;51.230;6.240;2023-02-12T07:44:18;9.50;99.90
27647;DHT22;42229;51.230;6.240;2023-02-12T07:46:45;9.40;99.90
27647;DHT22;42229;51.230;6.240;2023-02-12T07:49:13;9.50;99.90
27647;DHT22;42229;51.230;6.240;2023-02-12T07:51:41;9.50;99.90
27647;DHT22;42229;51.230;6.240;2023-02-12T07:54:07;9.50;99.90
27647;DHT22;42229;51.230;6.240;2023-02-12T07:56:35;9.50;99.90
27647;DHT22;42229;51.230;6.240;2023-02-12T07:59:04;9.50;99.90
27647;DHT22;42229;51.230;6.240;2023-02-12T08:01:39;9.50;99.90
27647;DHT22;42229;51.230;6.240;2023-02-12T08:04:12;9.50;99.90
27647;DHT22;42229;51.230;6.240;2023-02-12T08:06:41;9.60;99.90
27647;DHT22;42229;51.230;6.240;2023-02-12T08:09:10;9.60;99.90
27647;DHT22;42229;51.230;6.240;2023-02-12T08:11:38;9.60;99.90
27647;DHT22;42229;51.230;6.240;2023-02-12T08:14:05;9.60;99.90
27647;DHT22;42229;51.230;6.240;2023-02-12T08:16:34;9.60;99.90
27647;DHT22;42229;51.230;6.240;2023-02-12T08:19:01;9.60;99.90
27647;DHT22;42229;51.230;6.240;2023-02-12T08:21:28;9.60;99.90
27647;DHT22;42229;51.230;6.240;2023-02-12T08:23:54;9.70;99.90
27647;DHT22;42229;51.230;6.240;2023-02-12T08:26:23;9.70;99.90
27647;DHT22;42229;51.230;6.240;2023-02-12T08:28:54;9.70;99.90
27647;DHT22;42229;51.230;6.240;2023-02-12T08:31:25;9.70;99.90
27647;DHT22;42229;51.230;6.240;2023-02-12T08:33:53;9.80;99.90
27647;DHT22;42229;51.230;6.240;2023-02-12T08:36:21;9.80;99.90
27647;DHT22;42229;51.230;6.240;2023-02-12T08:38:49;9.80;99.90
27647;DHT22;42229;51.230;6.240;2023-02-12T08:41:16;9.80;99.90
27647;DHT22;42229;51.230;6.240;2023-02-12T08:43:45;9.80;99.90
27647;DHT22;42229;51.230;6.240;2023-02-12T08:46:15;9.80;99.90
27647;DHT22;42229;51.230;6.240;2023-02-12T08:48:46;9.90;99.90
27647;DHT22;42229;51.230;6.240;2023-02-12T08:51:17;9.90;99.90
27647;DHT22;42229;51.230;6.240;2023-02-12T08:53:45;10.00;99.90
27647;DHT22;42229;51.230;6.240;2023-02-12T08:56:12;10.00;99.90
27647;DHT22;42229;51.230;6.240;2023-02-12T08:58:41;10.10;99.90
27647;DHT22;42229;51.230;6.240;2023-02-12T09:01:08;10.10;99.90
27647;DHT22;42229;51.230;6.240;2023-02-12T09:03:36;10.20;99.90
27647;DHT22;42229;51.230;6.240;2023-02-12T09:06:02;10.20;99.90
27647;DHT22;42229;51.230;6.240;2023-02-12T09:08:29;10.20;99.90
27647;DHT22;42229;51.230;6.240;2023-02-12T09:10:56;10.30;99.90
27647;DHT22;42229;51.230;6.240;2023-02-12T09:13:22;10.40;99.90
27647;DHT22;42229;51.230;6.240;2023-02-12T09:15:48;10.40;99.90
27647;DHT22;42229;51.230;6.240;2023-02-12T09:18:14;10.50;99.90
27647;DHT22;42229;51.230;6.240;2023-02-12T09:20:43;10.60;99.90
27647;DHT22;42229;51.230;6.240;2023-02-12T09:23:10;10.60;99.90
27647;DHT22;42229;51.230;6.240;2023-02-12T09:25:38;10.60;99.90
27647;DHT22;42229;51.230;6.240;2023-02-12T09:28:05;10.70;99.90
27647;DHT22;42229;51.230;6.240;2023-02-12T09:30:31;10.70;99.90
27647;DHT22;42229;51.230;6.240;2023-02-12T09:32:57;10.80;99.90
27647;DHT22;42229;51.230;6.240;2023-02-12T09:35:24;10.90;99.90
27647;DHT22;42229;51.230;6.240;2023-02-12T09:37:51;10.90;99.90
27647;DHT22;42229;51.230;6.240;2023-02-12T09:40:21;11.00;99.90
27647;DHT22;42229;51.230;6.240;2023-02-12T09:45:54;11.10;99.90
27647;DHT22;42229;51.230;6.240;2023-02-12T09:51:26;11.20;99.90
27647;DHT22;42229;51.230;6.240;2023-02-12T09:53:59;11.30;99.90
27647;DHT22;42229;51.230;6.240;2023-02-12T09:56:28;11.30;99.90
27647;DHT22;42229;51.230;6.240;2023-02-12T09:58:55;11.40;99.90
27647;DHT22;42229;51.230;6.240;2023-02-12T10:01:27;11.40;99.90
27647;DHT22;42229;51.230;6.240;2023-02-12T10:03:54;11.50;99.90
27647;DHT22;42229;51.230;6.240;2023-02-12T10:06:21;11.50;99.90
27647;DHT22;42229;51.230;6.240;2023-02-12T10:25:47;11.90;99.90
27647;DHT22;42229;51.230;6.240;2023-02-12T10:28:17;12.00;99.90
27647;DHT22;42229;51.230;6.240;2023-02-12T10:30:53;12.00;99.90
27647;DHT22;42229;51.230;6.240;2023-02-12T10:36:08;12.10;99.90
27647;DHT22;42229;51.230;6.240;2023-02-12T10:38:42;12.10;99.90
27647;DHT22;42229;51.230;6.240;2023-02-12T10:41:11;12.20;99.90
27647;DHT22;42229;51.230;6.240;2023-02-12T10:43:40;12.20;99.90
27647;DHT22;42229;51.230;6.240;2023-02-12T10:46:10;12.30;99.90
27647;DHT22;42229;51.230;6.240;2023-02-12T10:48:39;12.30;99.90
27647;DHT22;42229;51.230;6.240;2023-02-12T10:53:40;12.30;99.90
27647;DHT22;42229;51.230;6.240;2023-02-12T10:58:55;12.50;99.90
27647;DHT22;42229;51.230;6.240;2023-02-12T11:01:28;12.50;99.90
27647;DHT22;42229;51.230;6.240;2023-02-12T11:03:57;12.50;99.90
27647;DHT22;42229;51.230;6.240;2023-02-12T11:06:25;12.50;99.90
27647;DHT22;42229;51.230;6.240;2023-02-12T11:08:54;12.60;99.90
27647;DHT22;42229;51.230;6.240;2023-02-12T11:11:22;12.60;99.90
27647;DHT22;42229;51.230;6.240;2023-02-12T11:13:56;12.60;99.90
27647;DHT22;42229;51.230;6.240;2023-02-12T11:19:16;12.70;99.90
27647;DHT22;42229;51.230;6.240;2023-02-12T11:21:50;12.70;99.90
27647;DHT22;42229;51.230;6.240;2023-02-12T11:29:41;12.70;99.90
27647;DHT22;42229;51.230;6.240;2023-02-12T11:32:08;12.80;99.90
27647;DHT22;42229;51.230;6.240;2023-02-12T11:34:41;12.80;99.90
27647;DHT22;42229;51.230;6.240;2023-02-12T11:37:15;12.80;99.90
27647;DHT22;42229;51.230;6.240;2023-02-12T11:39:46;12.90;99.90
27647;DHT22;42229;51.230;6.240;2023-02-12T11:42:15;12.90;99.90
27647;DHT22;42229;51.230;6.240;2023-02-12T11:44:46;12.90;99.90
27647;DHT22;42229;51.230;6.240;2023-02-12T11:47:20;13.00;99.90
27647;DHT22;42229;51.230;6.240;2023-02-12T11:49:50;12.90;99.90
27647;DHT22;42229;51.230;6.240;2023-02-12T11:52:22;13.00;99.90
27647;DHT22;42229;51.230;6.240;2023-02-12T11:54:49;13.00;99.90
27647;DHT22;42229;51.230;6.240;2023-02-12T12:00:40;13.00;99.90
27647;DHT22;42229;51.230;6.240;2023-02-12T12:03:19;13.00;99.90
27647;DHT22;42229;51.230;6.240;2023-02-12T12:05:51;13.10;99.90
27647;DHT22;42229;51.230;6.240;2023-02-12T12:08:21;13.10;99.90
27647;DHT22;42229;51.230;6.240;2023-02-12T12:11:04;13.10;99.90
27647;DHT22;42229;51.230;6.240;2023-02-12T12:13:38;13.10;99.90
27647;DHT22;42229;51.230;6.240;2023-02-12T12:16:10;13.10;99.90
27647;DHT22;42229;51.230;6.240;2023-02-12T12:18:58;13.20;99.90
27647;DHT22;42229;51.230;6.240;2023-02-12T12:24:21;13.20;99.90
27647;DHT22;42229;51.230;6.240;2023-02-12T12:27:09;13.20;99.90
27647;DHT22;42229;51.230;6.240;2023-02-12T12:30:01;13.20;99.90
27647;DHT22;42229;51.230;6.240;2023-02-12T12:32:32;13.30;99.90
27647;DHT22;42229;51.230;6.240;2023-02-12T12:35:01;13.30;99.90
27647;DHT22;42229;51.230;6.240;2023-02-12T12:40:00;13.30;99.90
27647;DHT22;42229;51.230;6.240;2023-02-12T12:56:27;13.50;99.90
27647;DHT22;42229;51.230;6.240;2023-02-12T13:10:47;13.60;99.90
27647;DHT22;42229;51.230;6.240;2023-02-12T13:13:30;13.60;99.90
27647;DHT22;42229;51.230;6.240;2023-02-12T13:27:47;13.80;99.90
27647;DHT22;42229;51.230;6.240;2023-02-12T13:33:19;13.80;99.90
27647;DHT22;42229;51.230;6.240;2023-02-12T13:35:50;13.80;99.90
27647;DHT22;42229;51.230;6.240;2023-02-12T13:38:23;13.90;99.90
27647;DHT22;42229;51.230;6.240;2023-02-12T13:40:53;13.90;99.90
27647;DHT22;42229;51.230;6.240;2023-02-12T13:54:36;13.90;99.90
27647;DHT22;42229;51.230;6.240;2023-02-12T13:57:19;13.90;99.90
27647;DHT22;42229;51.230;6.240;2023-02-12T13:59:47;13.90;99.90
27647;DHT22;42229;51.230;6.240;2023-02-12T14:02:26;13.80;99.90
27647;DHT22;42229;51.230;6.240;2023-02-12T14:04:54;13.80;99.90
27647;DHT22;42229;51.230;6.240;2023-02-12T14:07:21;13.80;99.90
27647;DHT22;42229;51.230;6.240;2023-02-12T14:12:15;13.70;99.90
27647;DHT22;42229;51.230;6.240;2023-02-12T14:14:44;13.70;99.90
27647;DHT22;42229;51.230;6.240;2023-02-12T14:28:46;13.60;99.90
27647;DHT22;42229;51.230;6.240;2023-02-12T14:33:48;13.60;99.90
27647;DHT22;42229;51.230;6.240;2023-02-12T14:46:52;13.40;99.90
27647;DHT22;42229;51.230;6.240;2023-02-12T14:49:29;13.40;99.90
27647;DHT22;42229;51.230;6.240;2023-02-12T14:52:45;13.40;99.90
27647;DHT22;42229;51.230;6.240;2023-02-12T14:54:53;13.30;99.90
27647;DHT22;42229;51.230;6.240;2023-02-12T14:57:25;13.30;99.90
27647;DHT22;42229;51.230;6.240;2023-02-12T15:00:35;13.30;99.90
27647;DHT22;42229;51.230;6.240;2023-02-12T15:05:42;13.20;99.90
27647;DHT22;42229;51.230;6.240;2023-02-12T15:10:58;13.20;99.90
27647;DHT22;42229;51.230;6.240;2023-02-12T15:21:59;13.10;99.90
27647;DHT22;42229;51.230;6.240;2023-02-12T15:24:26;13.00;99.90
27647;DHT22;42229;51.230;6.240;2023-02-12T15:26:53;13.00;99.90
27647;DHT22;42229;51.230;6.240;2023-02-12T15:29:23;13.00;99.90
27647;DHT22;42229;51.230;6.240;2023-02-12T15:31:52;13.00;99.90
27647;DHT22;42229;51.230;6.240;2023-02-12T15:34:20;13.00;99.90
27647;DHT22;42229;51.230;6.240;2023-02-12T15:36:48;12.90;99.90
27647;DHT22;42229;51.230;6.240;2023-02-12T15:39:16;12.90;99.90
27647;DHT22;42229;51.230;6.240;2023-02-12T15:41:45;12.80;99.90
27647;DHT22;42229;51.230;6.240;2023-02-12T15:44:23;12.80;99.90
27647;DHT22;42229;51.230;6.240;2023-02-12T15:46:52;12.80;99.90
27647;DHT22;42229;51.230;6.240;2023-02-12T15:49:25;12.80;99.90
27647;DHT22;42229;51.230;6.240;2023-02-12T15:51:53;12.70;99.90
27647;DHT22;42229;51.230;6.240;2023-02-12T15:54:19;12.70;99.90
27647;DHT22;42229;51.230;6.240;2023-02-12T15:56:45;12.70;99.90
27647;DHT22;42229;51.230;6.240;2023-02-12T15:59:18;12.60;99.90
27647;DHT22;42229;51.230;6.240;2023-02-12T16:01:53;12.60;99.90
27647;DHT22;42229;51.230;6.240;2023-02-12T16:04:22;12.60;99.90
27647;DHT22;42229;51.230;6.240;2023-02-12T16:06:49;12.50;99.90
27647;DHT22;42229;51.230;6.240;2023-02-12T16:09:16;12.50;99.90
27647;DHT22;42229;51.230;6.240;2023-02-12T16:11:48;12.50;99.90
27647;DHT22;42229;51.230;6.240;2023-02-12T16:14:25;12.40;99.90
27647;DHT22;42229;51.230;6.240;2023-02-12T16:16:54;12.40;99.90
27647;DHT22;42229;51.230;6.240;2023-02-12T16:19:26;12.40;99.90
27647;DHT22;42229;51.230;6.240;2023-02-12T16:24:34;12.30;99.90
27647;DHT22;42229;51.230;6.240;2023-02-12T16:27:48;12.30;99.90
27647;DHT22;42229;51.230;6.240;2023-02-12T16:29:59;12.30;99.90
27647;DHT22;42229;51.230;6.240;2023-02-12T16:32:37;12.20;99.90
27647;DHT22;42229;51.230;6.240;2023-02-12T16:42:37;12.20;99.90
27647;DHT22;42229;51.230;6.240;2023-02-12T16:47:49;12.20;99.90
27647;DHT22;42229;51.230;6.240;2023-02-12T16:50:16;12.10;99.90
27647;DHT22;42229;51.230;6.240;2023-02-12T16:52:43;12.10;99.90
27647;DHT22;42229;51.230;6.240;2023-02-12T16:55:11;12.10;99.90
27647;DHT22;42229;51.230;6.240;2023-02-12T16:57:39;12.00;99.90
27647;DHT22;42229;51.230;6.240;2023-02-12T17:00:05;12.00;99.90
27647;DHT22;42229;51.230;6.240;2023-02-12T17:02:35;12.00;99.90
27647;DHT22;42229;51.230;6.240;2023-02-12T17:05:03;12.00;99.90
27647;DHT22;42229;51.230;6.240;2023-02-12T17:07:32;11.90;99.90
27647;DHT22;42229;51.230;6.240;2023-02-12T17:09:59;11.90;99.90
27647;DHT22;42229;51.230;6.240;2023-02-12T17:12:25;11.90;99.90
27647;DHT22;42229;51.230;6.240;2023-02-12T17:14:52;11.90;99.90
27647;DHT22;42229;51.230;6.240;2023-02-12T17:17:20;11.80;99.90
27647;DHT22;42229;51.230;6.240;2023-02-12T17:19:46;11.80;99.90
27647;DHT22;42229;51.230;6.240;2023-02-12T17:22:17;11.70;99.90
27647;DHT22;42229;51.230;6.240;2023-02-12T17:24:45;11.80;99.90
27647;DHT22;42229;51.230;6.240;2023-02-12T17:27:16;11.70;99.90
27647;DHT22;42229;51.230;6.240;2023-02-12T17:29:43;11.70;99.90
27647;DHT22;42229;51.230;6.240;2023-02-12T17:32:10;11.70;99.90
27647;DHT22;42229;51.230;6.240;2023-02-12T17:34:37;11.60;99.90
27647;DHT22;42229;51.230;6.240;2023-02-12T17:37:03;11.60;99.90
27647;DHT22;42229;51.230;6.240;2023-02-12T17:39:30;11.60;99.90
27647;DHT22;42229;51.230;6.240;2023-02-12T17:41:56;11.60;99.90
27647;DHT22;42229;51.230;6.240;2023-02-12T17:44:25;11.60;99.90
27647;DHT22;42229;51.230;6.240;2023-02-12T17:46:51;11.50;99.90
27647;DHT22;42229;51.230;6.240;2023-02-12T17:49:18;11.50;99.90
27647;DHT22;42229;51.230;6.240;2023-02-12T17:51:44;11.50;99.90
27647;DHT22;42229;51.230;6.240;2023-02-12T17:54:10;11.50;99.90
27647;DHT22;42229;51.230;6.240;2023-02-12T17:56:37;11.50;99.90
27647;DHT22;42229;51.230;6.240;2023-02-12T17:59:03;11.40;99.90
27647;DHT22;42229;51.230;6.240;2023-02-12T18:01:29;11.40;99.90
27647;DHT22;42229;51.230;6.240;2023-02-12T18:03:56;11.30;99.90
27647;DHT22;42229;51.230;6.240;2023-02-12T18:06:23;11.40;99.90
27647;DHT22;42229;51.230;6.240;2023-02-12T18:08:54;11.30;99.90
27647;DHT22;42229;51.230;6.240;2023-02-12T18:11:21;11.30;99.90
27647;DHT22;42229;51.230;6.240;2023-02-12T18:13:50;11.30;99.90
27647;DHT22;42229;51.230;6.240;2023-02-12T18:16:18;11.30;99.90
27647;DHT22;42229;51.230;6.240;2023-02-12T18:18:44;11.30;99.90
27647;DHT22;42229;51.230;6.240;2023-02-12T18:21:11;11.20;99.90
27647;DHT22;42229;51.230;6.240;2023-02-12T18:23:39;11.20;99.90
27647;DHT22;42229;51.230;6.240;2023-02-12T18:26:06;11.20;99.90
27647;DHT22;42229;51.230;6.240;2023-02-12T18:28:33;11.20;99.90
27647;DHT22;42229;51.230;6.240;2023-02-12T18:31:00;11.10;99.90
27647;DHT22;42229;51.230;6.240;2023-02-12T18:33:26;11.10;99.90
27647;DHT22;42229;51.230;6.240;2023-02-12T18:36:00;11.10;99.90
27647;DHT22;42229;51.230;6.240;2023-02-12T18:38:28;11.10;99.90
27647;DHT22;42229;51.230;6.240;2023-02-12T18:40:55;11.00;99.90
27647;DHT22;42229;51.230;6.240;2023-02-12T18:43:21;11.00;99.90
27647;DHT22;42229;51.230;6.240;2023-02-12T18:45:48;11.00;99.90
27647;DHT22;42229;51.230;6.240;2023-02-12T18:48:14;11.00;99.90
27647;DHT22;42229;51.230;6.240;2023-02-12T18:50:40;11.00;99.90
27647;DHT22;42229;51.230;6.240;2023-02-12T18:53:06;10.90;99.90
27647;DHT22;42229;51.230;6.240;2023-02-12T18:55:33;10.90;99.90
27647;DHT22;42229;51.230;6.240;2023-02-12T18:57:59;10.90;99.90
27647;DHT22;42229;51.230;6.240;2023-02-12T19:00:25;10.90;99.90
27647;DHT22;42229;51.230;6.240;2023-02-12T19:02:51;10.80;99.90
27647;DHT22;42229;51.230;6.240;2023-02-12T19:05:17;10.80;99.90
27647;DHT22;42229;51.230;6.240;2023-02-12T19:07:44;10.80;99.90
27647;DHT22;42229;51.230;6.240;2023-02-12T19:10:10;10.70;99.90
27647;DHT22;42229;51.230;6.240;2023-02-12T19:12:36;10.70;99.90
27647;DHT22;42229;51.230;6.240;2023-02-12T19:15:02;10.70;99.90